Time;durP1;ratioP1;P1;durP2;ratioP2;P2;SDS_P1;SDS_P2;PMS_P1;PMS_P2;Temp;Humidity;BMP_temperature;BMP_pressure;BME280_temperature;BME280_humidity;BME280_pressure;Samples;Min_cycle;Max_cycle;Signal;HPM_P1;HPM_P2
2022/01/27 00:02:03;;;;;;;21.77;14.93;;;;;;;3.86;54.12;102122.89;1465814;96;21141;-52
2022/01/27 00:04:26;;;;;;;23.65;15.23;;;;;;;3.84;53.99;102113.38;1468209;96;21113;-53
2022/01/27 00:06:49;;;;;;;19.92;14.60;;;;;;;3.81;53.79;102117.17;1460319;96;21098;-55
2022/01/27 00:09:25;;;;;;;22.95;15.83;;;;;;;3.80;53.78;102121.85;1464346;96;21122;-53
2022/01/27 00:11:47;;;;;;;25.45;16.75;;;;;;;3.79;53.71;102120.12;1475266;92;21597;-53
2022/01/27 00:14:17;;;;;;;25.32;16.70;;;;;;;3.82;53.63;102122.77;1548160;91;21113;-53
2022/01/27 00:16:53;;;;;;;27.30;16.70;;;;;;;3.83;53.38;102128.39;1538697;91;21143;-52
2022/01/27 00:19:11;;;;;;;26.82;18.23;;;;;;;3.83;53.20;102125.81;1543394;91;21138;-52
2022/01/27 00:21:38;;;;;;;26.45;16.93;;;;;;;3.82;53.08;102122.77;1536920;91;21164;-52
2022/01/27 00:24:05;;;;;;;27.98;18.05;;;;;;;3.82;52.88;102124.94;1540748;90;21121;-52
2022/01/27 00:26:32;;;;;;;29.30;18.82;;;;;;;3.82;52.70;102121.07;1573735;88;21595;-53
2022/01/27 00:28:58;;;;;;;25.82;17.82;;;;;;;3.82;52.30;102126.22;1652050;84;21616;-52
2022/01/27 00:31:25;;;;;;;29.05;19.15;;;;;;;3.82;52.06;102124.05;1678025;84;21084;-52
2022/01/27 00:33:52;;;;;;;28.75;18.77;;;;;;;3.80;51.90;102114.13;1709830;80;20971;-53
2022/01/27 00:36:19;;;;;;;27.93;18.02;;;;;;;3.79;51.88;102112.41;1759901;80;21006;-52
2022/01/27 00:38:45;;;;;;;30.30;18.85;;;;;;;3.76;51.84;102113.18;1774724;80;20994;-53
2022/01/27 00:41:13;;;;;;;29.98;18.30;;;;;;;3.73;51.80;102113.52;1750508;80;21003;-53
2022/01/27 00:43:40;;;;;;;29.30;19.27;;;;;;;3.69;51.80;102112.98;1775141;80;21519;-53
2022/01/27 00:46:12;;;;;;;28.38;18.77;;;;;;;3.68;51.77;102112.51;1758152;80;21578;-52
2022/01/27 00:48:35;;;;;;;30.43;18.73;;;;;;;3.65;51.68;102105.97;1753813;80;21085;-52
2022/01/27 00:51:04;;;;;;;27.48;18.67;;;;;;;3.61;51.73;102106.72;1747150;80;21033;-52
2022/01/27 01:01:12;;;;;;;30.08;19.42;;;;;;;3.45;51.67;102101.98;1676379;84;20139;-53
2022/01/27 01:03:42;;;;;;;30.20;17.10;;;;;;;3.44;51.50;102111.42;1700047;83;21058;-53
2022/01/27 01:14:27;;;;;;;28.35;18.40;;;;;;;3.05;51.74;102112.83;1702196;83;21064;-52
2022/01/27 01:16:47;;;;;;;31.05;18.35;;;;;;;2.97;51.92;102117.71;1701668;83;21492;-52
2022/01/27 01:30:19;;;;;;;24.18;16.05;;;;;;;2.53;52.31;102129.59;1662537;85;21097;-52
2022/01/27 01:35:04;;;;;;;24.87;16.07;;;;;;;2.32;52.88;102128.48;1661107;82;21063;-54
2022/01/27 01:37:28;;;;;;;24.95;16.70;;;;;;;2.29;53.16;102134.78;1768885;80;21033;-52
2022/01/27 01:39:55;;;;;;;25.48;16.67;;;;;;;2.32;53.36;102130.16;1775935;80;21129;-52
2022/01/27 01:42:21;;;;;;;27.87;17.77;;;;;;;2.35;53.33;102126.39;1770271;80;21117;-52
2022/01/27 01:44:49;;;;;;;26.70;17.60;;;;;;;2.43;53.35;102126.27;1759863;80;21079;-52
2022/01/27 01:47:18;;;;;;;29.75;17.90;;;;;;;2.48;53.20;102127.27;1765980;80;21098;-51
2022/01/27 01:49:44;;;;;;;28.23;17.70;;;;;;;2.54;53.03;102122.33;1770454;80;21079;-52
2022/01/27 01:52:10;;;;;;;27.48;17.02;;;;;;;2.62;52.93;102125.17;1744617;80;21063;-52
2022/01/27 01:54:37;;;;;;;25.27;16.82;;;;;;;2.70;52.69;102132.27;1774027;80;21037;-52
2022/01/27 01:57:04;;;;;;;25.35;15.32;;;;;;;2.77;52.50;102125.23;1773075;80;21024;-52
2022/01/27 01:59:31;;;;;;;22.82;14.95;;;;;;;2.84;52.23;102125.89;1765831;80;21033;-52
2022/01/27 02:01:58;;;;;;;22.15;14.65;;;;;;;2.90;52.17;102118.37;1760639;80;21033;-52
2022/01/27 02:04:25;;;;;;;21.82;14.07;;;;;;;2.97;51.99;102126.71;1771937;80;21038;-53
2022/01/27 02:06:56;;;;;;;22.42;14.07;;;;;;;3.00;51.84;102129.39;1754540;80;21054;-52
2022/01/27 02:09:29;;;;;;;20.35;13.70;;;;;;;3.04;51.57;102132.52;1772113;79;21561;-52
2022/01/27 02:19:54;;;;;;;18.77;12.28;;;;;;;3.13;50.65;102122.92;1672760;85;21081;-52
2022/01/27 02:22:21;;;;;;;22.20;13.38;;;;;;;3.10;50.54;102122.41;1683288;85;21101;-52
2022/01/27 02:24:48;;;;;;;20.77;14.35;;;;;;;3.08;50.43;102121.49;1672666;85;20991;-52
2022/01/27 02:27:15;;;;;;;19.77;13.53;;;;;;;3.08;50.24;102125.35;1676810;84;21127;-52
2022/01/27 02:29:44;;;;;;;23.10;15.40;;;;;;;3.07;50.09;102122.30;1671522;84;20985;-52
2022/01/27 02:32:12;;;;;;;21.25;14.65;;;;;;;3.04;49.99;102127.38;1679265;84;21588;-52
2022/01/27 02:34:40;;;;;;;20.32;13.93;;;;;;;3.03;49.83;102120.91;1684588;84;21042;-51
2022/01/27 02:37:10;;;;;;;20.57;13.60;;;;;;;3.00;49.65;102128.11;1674083;85;21081;-51
2022/01/27 02:39:37;;;;;;;21.80;13.15;;;;;;;2.97;49.50;102124.55;1681159;85;21470;-52
2022/01/27 02:42:23;;;;;;;17.67;12.70;;;;;;;2.91;49.37;102126.93;1663722;85;21054;-52
2022/01/27 02:44:58;;;;;;;19.45;12.88;;;;;;;2.86;49.48;102116.53;1668596;85;21558;-51
2022/01/27 02:47:25;;;;;;;17.00;12.47;;;;;;;2.80;49.44;102117.63;1670942;85;21022;-51
2022/01/27 02:49:52;;;;;;;19.82;13.38;;;;;;;2.77;49.49;102123.95;1682798;84;21074;-51
2022/01/27 02:52:19;;;;;;;18.95;12.70;;;;;;;2.73;49.33;102122.10;1684552;84;21510;-52
2022/01/27 02:54:45;;;;;;;20.55;13.88;;;;;;;2.71;49.18;102128.89;1675716;85;21679;-51
2022/01/27 02:57:12;;;;;;;18.52;12.82;;;;;;;2.66;48.86;102125.28;1726914;80;21529;-51
2022/01/27 02:59:38;;;;;;;18.98;13.18;;;;;;;2.61;48.64;102124.29;1769911;80;21482;-51
2022/01/27 03:02:05;;;;;;;21.85;13.40;;;;;;;2.56;48.57;102122.37;1767238;80;21529;-51
2022/01/27 03:04:34;;;;;;;21.55;13.50;;;;;;;2.50;48.52;102124.34;1754315;81;21338;-51
2022/01/27 03:07:04;;;;;;;16.27;11.60;;;;;;;2.47;48.54;102128.11;1762170;80;21037;-51
2022/01/27 03:09:32;;;;;;;17.20;11.03;;;;;;;2.43;48.61;102132.69;1760892;80;21085;-51
2022/01/27 03:12:02;;;;;;;17.70;10.90;;;;;;;2.42;48.56;102139.92;1763835;80;21053;-51
2022/01/27 03:14:29;;;;;;;16.65;11.75;;;;;;;2.39;48.42;102138.55;1766225;80;20975;-51
2022/01/27 03:16:59;;;;;;;19.65;13.08;;;;;;;2.38;48.41;102138.07;1770942;80;21031;-51
2022/01/27 03:19:26;;;;;;;17.27;11.05;;;;;;;2.36;48.27;102147.42;1761254;80;21046;-52
2022/01/27 03:21:54;;;;;;;17.00;11.57;;;;;;;2.33;48.21;102144.73;1752283;80;21006;-51
2022/01/27 03:24:23;;;;;;;19.52;12.60;;;;;;;2.32;48.14;102146.86;1772807;80;21479;-52
2022/01/27 03:26:50;;;;;;;17.15;10.75;;;;;;;2.29;48.16;102144.17;1725625;82;21061;-52
2022/01/27 03:29:18;;;;;;;15.68;10.80;;;;;;;2.26;48.20;102146.25;1719727;82;21109;-51
2022/01/27 03:31:45;;;;;;;13.28;9.70;;;;;;;2.24;48.17;102144.45;1707218;82;21045;-51
2022/01/27 03:34:14;;;;;;;13.43;9.53;;;;;;;2.23;48.07;102150.39;1709132;82;21043;-51
2022/01/27 03:36:40;;;;;;;14.10;9.50;;;;;;;2.21;47.99;102148.18;1718264;82;21101;-51
2022/01/27 03:39:08;;;;;;;12.98;9.45;;;;;;;2.18;47.85;102150.26;1720541;82;20999;-51
2022/01/27 03:41:37;;;;;;;16.32;9.90;;;;;;;2.16;47.90;102149.73;1727811;82;21648;-51
2022/01/27 03:44:06;;;;;;;15.18;9.85;;;;;;;2.14;47.78;102152.66;1716928;82;21553;-51
2022/01/27 03:46:33;;;;;;;15.53;10.43;;;;;;;2.12;47.62;102156.88;1708437;82;21082;-52
2022/01/27 03:49:00;;;;;;;15.23;9.55;;;;;;;2.09;47.48;102158.03;1709509;82;21102;-51
2022/01/27 03:51:26;;;;;;;14.10;9.15;;;;;;;2.06;47.48;102154.09;1716256;82;21045;-51
2022/01/27 03:53:54;;;;;;;12.75;9.78;;;;;;;2.02;47.40;102152.24;1715610;82;21039;-52
2022/01/27 03:56:20;;;;;;;15.63;10.48;;;;;;;2.02;47.33;102152.24;1714086;82;21018;-51
2022/01/27 03:58:48;;;;;;;11.78;8.58;;;;;;;2.00;47.15;102148.31;1711139;82;21054;-51
2022/01/27 04:01:14;;;;;;;15.28;10.15;;;;;;;1.97;47.21;102151.19;1706361;82;21045;-52
2022/01/27 04:03:43;;;;;;;15.50;9.93;;;;;;;1.93;47.11;102154.07;1716860;82;21553;-51
2022/01/27 04:06:10;;;;;;;14.18;10.32;;;;;;;1.89;46.99;102153.91;1714526;82;21084;-52
2022/01/27 04:08:39;;;;;;;14.13;9.18;;;;;;;1.84;47.05;102159.27;1707105;82;21703;-51
2022/01/27 04:11:07;;;;;;;12.15;9.13;;;;;;;1.81;47.08;102159.17;1729852;82;21066;-51
2022/01/27 04:13:34;;;;;;;13.83;9.55;;;;;;;1.77;47.21;102158.20;1727117;82;21033;-51
2022/01/27 04:16:01;;;;;;;13.50;9.33;;;;;;;1.75;47.24;102162.80;1701544;82;21576;-51
2022/01/27 04:18:27;;;;;;;14.83;9.75;;;;;;;1.73;47.45;102170.86;1708465;82;21511;-51
2022/01/27 04:20:54;;;;;;;13.55;9.83;;;;;;;1.71;47.43;102162.23;1715354;82;21545;-51
2022/01/27 04:23:20;;;;;;;14.53;9.50;;;;;;;1.69;47.45;102163.87;1735377;81;21495;-51
2022/01/27 04:25:47;;;;;;;14.43;9.85;;;;;;;1.68;47.56;102161.70;1756565;80;20994;-52
2022/01/27 04:28:21;;;;;;;12.98;8.83;;;;;;;1.65;47.62;102168.87;1744597;80;21072;-51
2022/01/27 04:30:43;;;;;;;15.70;9.90;;;;;;;1.61;47.86;102165.73;1766312;80;21039;-51
2022/01/27 04:33:09;;;;;;;14.87;9.85;;;;;;;1.51;48.10;102167.89;1764368;80;21026;-51
2022/01/27 04:35:42;;;;;;;16.07;9.70;;;;;;;1.38;48.21;102175.53;1776236;80;21525;-51
2022/01/27 04:40:52;;;;;;;18.12;10.75;;;;;;;1.20;48.37;102181.25;1763269;80;21007;-51
2022/01/27 04:48:24;;;;;;;14.80;9.98;;;;;;;1.32;48.26;102188.56;1688833;83;21034;-51
2022/01/27 04:50:53;;;;;;;13.80;10.32;;;;;;;1.36;48.24;102186.58;1700339;83;21085;-52
2022/01/27 04:53:29;;;;;;;16.90;10.72;;;;;;;1.40;48.11;102193.14;1688017;83;21596;-51
2022/01/27 04:55:51;;;;;;;14.07;10.20;;;;;;;1.41;48.21;102196.19;1688641;83;20998;-51
2022/01/27 04:58:26;;;;;;;19.95;10.23;;;;;;;1.42;48.20;102203.05;1710820;82;21057;-51
2022/01/27 05:00:46;;;;;;;13.98;10.00;;;;;;;1.46;47.98;102199.78;1707552;83;22628;-52
2022/01/27 05:03:31;;;;;;;13.68;10.08;;;;;;;1.47;47.94;102203.23;1701695;83;21070;-51
2022/01/27 05:05:52;;;;;;;15.53;10.35;;;;;;;1.48;47.85;102201.99;1694561;83;21067;-51
2022/01/27 05:08:19;;;;;;;16.12;10.25;;;;;;;1.48;47.71;102203.28;1680708;83;21114;-52
2022/01/27 05:13:26;;;;;;;17.80;10.82;;;;;;;1.51;47.49;102205.97;1586083;89;21091;-51
2022/01/27 05:15:51;;;;;;;15.88;10.58;;;;;;;1.54;47.39;102206.10;1603200;89;21105;-51
2022/01/27 05:18:19;;;;;;;19.48;11.73;;;;;;;1.52;47.27;102214.15;1598720;88;21099;-51
2022/01/27 05:20:46;;;;;;;17.23;11.83;;;;;;;1.51;47.26;102204.69;1587053;89;21054;-51
2022/01/27 05:23:13;;;;;;;21.55;12.85;;;;;;;1.51;47.28;102203.41;1600963;89;21086;-51
2022/01/27 05:25:40;;;;;;;21.12;12.90;;;;;;;1.50;47.37;102208.09;1594359;88;21101;-51
2022/01/27 05:28:07;;;;;;;19.02;11.78;;;;;;;1.50;47.55;102209.37;1580458;89;21593;-51
2022/01/27 05:30:34;;;;;;;19.25;12.25;;;;;;;1.46;47.50;102219.45;1589682;90;21087;-51
2022/01/27 05:33:01;;;;;;;17.90;11.57;;;;;;;1.45;47.38;102212.16;1594597;88;21225;-51
2022/01/27 05:35:28;;;;;;;19.50;11.85;;;;;;;1.45;47.37;102217.28;1584631;89;21142;-51
2022/01/27 05:37:54;;;;;;;20.90;11.70;;;;;;;1.45;47.42;102223.70;1535448;92;21080;-51
2022/01/27 05:40:21;;;;;;;20.92;11.35;;;;;;;1.45;47.55;102216.00;1653089;84;21077;-51
2022/01/27 05:42:47;;;;;;;17.60;11.50;;;;;;;1.44;47.42;102221.93;1680762;83;21033;-52
2022/01/27 05:45:14;;;;;;;25.50;12.98;;;;;;;1.44;47.45;102232.63;1682993;83;21101;-51
2022/01/27 05:47:41;;;;;;;20.02;12.58;;;;;;;1.43;47.59;102230.46;1686731;83;21057;-51
2022/01/27 05:50:09;;;;;;;17.67;12.43;;;;;;;1.44;47.66;102242.45;1682200;83;21113;-51
2022/01/27 05:52:35;;;;;;;21.55;13.22;;;;;;;1.44;47.58;102250.14;1683489;83;21513;-51
2022/01/27 05:55:01;;;;;;;20.68;12.20;;;;;;;1.45;47.65;102246.78;1695850;83;21041;-51
2022/01/27 05:57:28;;;;;;;22.05;12.30;;;;;;;1.47;47.68;102241.30;1687812;83;21121;-51
2022/01/27 05:59:54;;;;;;;24.12;13.80;;;;;;;1.49;47.67;102246.08;1680549;83;21041;-51
2022/01/27 06:02:21;;;;;;;23.95;14.28;;;;;;;1.52;47.66;102245.33;1700817;83;21117;-51
2022/01/27 06:04:47;;;;;;;27.22;16.52;;;;;;;1.53;47.73;102249.23;1677014;83;21028;-51
2022/01/27 06:07:15;;;;;;;27.20;16.50;;;;;;;1.57;47.90;102245.97;1685047;84;21027;-51
2022/01/27 06:09:41;;;;;;;24.63;15.58;;;;;;;1.62;47.93;102248.31;1721291;80;21060;-51
2022/01/27 06:12:09;;;;;;;27.95;15.78;;;;;;;1.67;47.72;102237.34;1764561;80;20992;-51
2022/01/27 06:14:35;;;;;;;23.30;15.28;;;;;;;1.74;47.58;102243.16;1763816;80;21034;-51
2022/01/27 06:17:03;;;;;;;24.25;15.53;;;;;;;1.77;47.58;102242.88;1756666;80;21047;-51
2022/01/27 06:19:31;;;;;;;24.05;15.25;;;;;;;1.81;47.55;102238.73;1768652;80;21129;-52
2022/01/27 06:21:58;;;;;;;30.85;16.95;;;;;;;1.82;47.67;102234.05;1749312;80;21047;-51
2022/01/27 06:24:27;;;;;;;24.82;16.02;;;;;;;1.83;47.94;102229.39;1750783;80;21807;-51
2022/01/27 06:26:55;;;;;;;24.05;15.03;;;;;;;1.92;47.95;102228.43;1774479;80;21542;-51
2022/01/27 06:29:22;;;;;;;27.13;15.75;;;;;;;2.02;47.88;102229.25;1751741;81;21013;-51
2022/01/27 06:31:49;;;;;;;23.87;15.63;;;;;;;2.17;47.90;102225.93;1765825;80;21083;-52
2022/01/27 06:34:15;;;;;;;23.30;15.23;;;;;;;2.32;47.91;102225.20;1756643;80;21121;-51
2022/01/27 06:36:41;;;;;;;22.15;15.13;;;;;;;2.48;47.71;102225.78;1755269;80;21824;-51
2022/01/27 06:39:08;;;;;;;22.98;14.83;;;;;;;2.61;47.60;102230.93;1749275;80;21514;-51
2022/01/27 06:41:34;;;;;;;25.68;16.02;;;;;;;2.65;47.50;102222.50;1749194;80;20998;-51
2022/01/27 06:44:02;;;;;;;23.83;14.68;;;;;;;2.76;47.37;102233.98;1767601;80;21050;-51
2022/01/27 06:46:29;;;;;;;21.87;15.95;;;;;;;2.94;47.28;102228.19;1764745;80;21617;-51
2022/01/27 06:48:55;;;;;;;26.48;17.48;;;;;;;3.14;46.91;102228.81;1765136;80;21085;-51
2022/01/27 06:51:23;;;;;;;27.60;17.37;;;;;;;3.28;46.64;102227.13;1768023;80;20995;-51
2022/01/27 06:53:49;;;;;;;31.65;21.35;;;;;;;3.36;46.39;102232.51;1763847;80;21537;-51
2022/01/27 06:56:16;;;;;;;33.73;21.77;;;;;;;3.39;46.28;102234.30;1753031;80;21097;-51
2022/01/27 06:58:42;;;;;;;32.93;20.12;;;;;;;3.41;46.38;102246.80;1761509;80;21037;-51
2022/01/27 07:01:09;;;;;;;25.77;17.92;;;;;;;3.46;46.33;102247.84;1760592;80;21135;-51
2022/01/27 07:03:36;;;;;;;25.27;17.70;;;;;;;3.47;46.29;102252.14;1774745;80;21078;-51
2022/01/27 07:06:03;;;;;;;25.08;17.55;;;;;;;3.48;46.31;102238.46;1749351;80;21015;-51
2022/01/27 07:08:29;;;;;;;27.32;17.65;;;;;;;3.47;46.60;102234.13;1757364;80;21070;-51
2022/01/27 07:10:56;;;;;;;25.90;17.80;;;;;;;3.45;46.74;102246.08;1763245;80;21051;-51
2022/01/27 07:13:22;;;;;;;34.63;21.17;;;;;;;3.43;46.90;102250.30;1739823;80;21067;-51
2022/01/27 07:15:49;;;;;;;27.45;18.10;;;;;;;3.40;47.20;102248.94;1744789;80;21006;-52
2022/01/27 07:18:16;;;;;;;25.35;17.10;;;;;;;3.45;47.97;102247.36;1766002;80;21042;-51
2022/01/27 07:20:42;;;;;;;25.88;16.93;;;;;;;3.54;47.97;102243.80;1752886;80;21084;-51
2022/01/27 07:23:10;;;;;;;26.40;17.77;;;;;;;3.61;47.83;102248.28;1745734;80;21043;-51
2022/01/27 07:25:37;;;;;;;24.30;15.68;;;;;;;3.68;47.87;102240.81;1764167;80;21045;-51
2022/01/27 07:28:04;;;;;;;22.85;15.00;;;;;;;3.75;47.68;102236.72;1757970;80;21031;-51
2022/01/27 07:30:30;;;;;;;24.20;16.37;;;;;;;3.77;47.40;102232.48;1756530;80;21058;-51
2022/01/27 07:32:57;;;;;;;28.80;17.07;;;;;;;3.71;47.36;102224.59;1752172;81;21089;-52
2022/01/27 07:35:23;;;;;;;26.02;17.05;;;;;;;3.72;47.58;102218.59;1749401;80;21040;-52
2022/01/27 07:37:49;;;;;;;29.72;19.10;;;;;;;3.80;47.84;102227.41;1757957;80;21053;-51
2022/01/27 07:40:16;;;;;;;29.25;18.20;;;;;;;3.88;47.78;102234.94;1751684;80;21116;-51
2022/01/27 07:42:42;;;;;;;30.02;19.73;;;;;;;3.95;47.79;102239.45;1758248;80;21013;-51
2022/01/27 07:45:11;;;;;;;29.42;19.23;;;;;;;4.02;47.61;102238.77;1757407;80;21570;-51
2022/01/27 07:47:37;;;;;;;29.50;17.37;;;;;;;4.03;47.54;102240.53;1764719;80;21508;-51
2022/01/27 07:50:05;;;;;;;28.20;18.48;;;;;;;4.03;47.33;102241.83;1749772;80;21620;-51
2022/01/27 07:52:32;;;;;;;22.95;17.37;;;;;;;4.01;47.50;102242.20;1761266;80;21482;-51
2022/01/27 07:54:58;;;;;;;27.90;18.25;;;;;;;4.01;47.69;102240.50;1763130;80;20990;-51
2022/01/27 07:57:25;;;;;;;26.00;16.80;;;;;;;4.01;47.57;102243.48;1771010;80;21035;-51
2022/01/27 07:59:51;;;;;;;25.12;16.55;;;;;;;3.91;47.63;102243.65;1774102;80;21037;-52
2022/01/27 08:02:18;;;;;;;22.73;15.28;;;;;;;3.85;47.81;102233.14;1748632;81;21000;-51
2022/01/27 08:04:46;;;;;;;26.12;16.80;;;;;;;3.83;48.02;102245.54;1747129;80;21097;-51
2022/01/27 08:07:13;;;;;;;21.77;14.73;;;;;;;3.79;48.12;102244.55;1760430;80;21533;-51
2022/01/27 08:09:40;;;;;;;21.90;13.78;;;;;;;3.73;48.31;102243.52;1761901;80;21571;-51
2022/01/27 08:12:08;;;;;;;19.48;13.13;;;;;;;3.61;48.43;102244.42;1763058;81;21688;-51
2022/01/27 08:14:36;;;;;;;17.90;12.73;;;;;;;3.51;48.76;102247.55;1757305;80;21014;-51
2022/01/27 08:17:03;;;;;;;20.80;13.90;;;;;;;3.43;48.97;102255.45;1761818;80;21063;-51
2022/01/27 08:19:29;;;;;;;22.32;13.32;;;;;;;3.44;49.40;102255.92;1756846;80;21038;-51
2022/01/27 08:21:56;;;;;;;23.75;14.73;;;;;;;3.52;49.59;102252.77;1771879;80;21554;-51
2022/01/27 08:24:22;;;;;;;21.30;14.47;;;;;;;3.61;49.59;102252.14;1767538;80;21051;-51
2022/01/27 08:26:50;;;;;;;23.95;14.98;;;;;;;3.66;49.47;102246.73;1764457;80;21050;-51
2022/01/27 08:29:21;;;;;;;22.87;15.18;;;;;;;3.74;49.58;102246.13;1760320;80;21605;-51
2022/01/27 08:32:02;;;;;;;22.25;14.58;;;;;;;3.81;49.38;102251.91;1757259;80;21046;-52
2022/01/27 08:34:37;;;;;;;22.60;14.50;;;;;;;3.90;49.36;102257.74;1765263;80;21034;-51
2022/01/27 08:37:11;;;;;;;22.22;15.25;;;;;;;3.98;49.22;102259.71;1694312;83;21518;-52
2022/01/27 08:39:38;;;;;;;20.27;14.00;;;;;;;4.05;49.14;102256.91;1702611;83;21023;-51
2022/01/27 08:42:05;;;;;;;20.80;13.55;;;;;;;4.12;49.25;102262.27;1677562;83;21583;-51
2022/01/27 08:44:32;;;;;;;20.12;13.35;;;;;;;4.20;49.25;102266.36;1692529;83;21603;-51
2022/01/27 08:46:58;;;;;;;18.77;12.60;;;;;;;4.29;49.14;102258.88;1689550;82;21515;-51
2022/01/27 08:49:26;;;;;;;17.98;11.48;;;;;;;4.39;48.95;102263.44;1691935;83;21038;-51
2022/01/27 08:51:54;;;;;;;20.65;13.65;;;;;;;4.44;48.52;102268.31;1675055;85;21587;-51
2022/01/27 08:54:20;;;;;;;21.73;14.45;;;;;;;4.50;48.61;102265.02;1689541;83;21073;-51
2022/01/27 08:56:46;;;;;;;19.05;12.45;;;;;;;4.58;48.49;102266.09;1662205;85;21032;-51
2022/01/27 08:59:14;;;;;;;20.50;13.80;;;;;;;4.63;48.31;102264.13;1699461;83;21079;-51
2022/01/27 09:01:40;;;;;;;19.82;12.73;;;;;;;4.69;48.10;102264.28;1685364;84;21070;-51
2022/01/27 09:04:07;;;;;;;19.75;13.05;;;;;;;4.74;47.80;102256.23;1703856;84;21604;-51
2022/01/27 09:06:34;;;;;;;21.33;13.18;;;;;;;4.77;47.74;102262.77;1709525;83;21863;-51
2022/01/27 09:09:01;;;;;;;16.95;12.80;;;;;;;4.85;47.84;102268.11;1694131;83;21050;-51
2022/01/27 09:11:30;;;;;;;18.30;12.30;;;;;;;4.92;47.56;102257.97;1676777;85;20997;-51
2022/01/27 09:13:59;;;;;;;18.37;13.03;;;;;;;4.99;47.45;102256.42;1685728;83;21105;-51
2022/01/27 09:16:27;;;;;;;20.95;14.45;;;;;;;5.08;47.36;102258.36;1691756;83;21043;-51
2022/01/27 09:18:57;;;;;;;19.55;14.55;;;;;;;5.15;47.26;102256.40;1689847;83;21055;-51
2022/01/27 09:21:32;;;;;;;21.52;14.65;;;;;;;5.19;47.21;102248.77;1682359;83;21046;-51
2022/01/27 09:23:54;;;;;;;19.40;14.15;;;;;;;5.26;47.31;102239.03;1656986;85;21091;-51
2022/01/27 09:26:43;;;;;;;20.25;13.70;;;;;;;5.33;47.05;102251.25;1693678;83;21058;-51
2022/01/27 09:29:08;;;;;;;19.87;13.85;;;;;;;5.40;47.12;102239.37;1669106;84;21096;-51
2022/01/27 09:31:36;;;;;;;21.97;14.70;;;;;;;5.49;47.11;102226.65;1667078;85;21092;-51
2022/01/27 09:34:03;;;;;;;25.45;16.50;;;;;;;5.56;46.92;102227.25;1736817;80;21046;-51
2022/01/27 09:36:30;;;;;;;22.75;15.48;;;;;;;5.63;47.00;102232.57;1771214;80;21525;-51
2022/01/27 09:38:57;;;;;;;19.98;13.62;;;;;;;5.71;47.04;102231.44;1756993;80;21086;-51
2022/01/27 09:41:23;;;;;;;16.57;12.13;;;;;;;5.77;46.96;102231.56;1758344;80;21062;-50
2022/01/27 09:43:53;;;;;;;19.07;12.15;;;;;;;5.84;46.77;102225.73;1764001;80;21061;-51
2022/01/27 09:46:21;;;;;;;16.85;11.78;;;;;;;5.90;46.55;102229.73;1751537;80;21021;-51
2022/01/27 09:48:49;;;;;;;15.48;11.25;;;;;;;5.96;46.36;102221.22;1758094;81;21495;-51
2022/01/27 09:51:39;;;;;;;16.50;11.33;;;;;;;6.01;46.27;102221.79;1762976;80;21482;-51
2022/01/27 09:53:57;;;;;;;14.58;10.68;;;;;;;6.06;46.32;102212.39;1743555;80;21503;-51
2022/01/27 09:56:24;;;;;;;16.07;9.90;;;;;;;6.13;46.47;102203.94;1764228;80;21066;-51
2022/01/27 09:58:51;;;;;;;13.05;9.00;;;;;;;6.19;46.44;102204.05;1724062;82;21562;-51
2022/01/27 10:01:17;;;;;;;14.85;9.38;;;;;;;6.24;46.10;102203.73;1757123;80;21043;-51
2022/01/27 10:04:06;;;;;;;14.70;10.15;;;;;;;6.30;45.99;102199.97;1765559;80;20991;-51
2022/01/27 10:06:34;;;;;;;13.62;8.43;;;;;;;6.34;45.77;102201.77;1698649;83;21092;-52
2022/01/27 10:09:19;;;;;;;12.25;7.90;;;;;;;6.39;45.57;102193.65;1688618;83;21085;-51
2022/01/27 10:11:48;;;;;;;10.95;7.58;;;;;;;6.43;45.23;102188.98;1690436;83;21105;-50
2022/01/27 10:14:21;;;;;;;11.28;8.35;;;;;;;6.47;45.03;102186.90;1692760;83;21141;-51
2022/01/27 10:16:49;;;;;;;12.55;8.28;;;;;;;6.49;44.92;102178.75;1682237;85;21192;-51
2022/01/27 10:19:16;;;;;;;11.40;8.18;;;;;;;6.52;44.76;102173.64;1684664;85;21065;-51
2022/01/27 10:21:43;;;;;;;11.25;7.40;;;;;;;6.55;44.93;102178.84;1683517;85;21168;-51
2022/01/27 10:24:27;;;;;;;8.13;6.67;;;;;;;6.58;44.69;102173.75;1685545;85;21529;-52
2022/01/27 10:27:27;;;;;;;8.60;6.15;;;;;;;6.58;44.59;102171.16;1683142;85;21078;-51
2022/01/27 10:32:46;;;;;;;8.20;5.35;;;;;;;6.56;44.08;102174.14;1694960;83;21102;-50
2022/01/27 10:35:15;;;;;;;9.70;6.40;;;;;;;6.56;43.85;102172.84;1707466;83;21161;-51
2022/01/27 10:38:07;;;;;;;9.58;7.33;;;;;;;6.53;43.88;102174.07;1687422;83;21052;-51
2022/01/27 10:40:44;;;;;;;8.28;5.85;;;;;;;6.47;43.90;102175.27;1691436;83;21632;-51
2022/01/27 10:43:19;;;;;;;8.88;5.87;;;;;;;6.42;43.85;102173.45;1693751;83;21052;-51
2022/01/27 10:46:24;;;;;;;7.03;5.72;;;;;;;6.37;43.95;102177.24;1693136;83;21026;-51
2022/01/27 10:48:58;;;;;;;8.88;5.90;;;;;;;6.33;44.19;102174.16;1697917;83;21097;-51
2022/01/27 10:51:26;;;;;;;7.95;6.17;;;;;;;6.30;44.29;102174.12;1702828;84;21074;-51
2022/01/27 10:54:05;;;;;;;7.12;4.75;;;;;;;6.26;44.78;102164.56;1694445;83;21006;-51
2022/01/27 10:56:38;;;;;;;6.37;4.45;;;;;;;6.23;44.56;102161.91;1670830;84;21632;-51
2022/01/27 10:59:11;;;;;;;5.05;3.75;;;;;;;6.20;44.25;102156.67;1687152;83;21069;-52
2022/01/27 11:01:41;;;;;;;6.25;5.05;;;;;;;6.16;44.16;102156.16;1701513;83;21090;-51
2022/01/27 11:04:12;;;;;;;6.78;4.78;;;;;;;6.13;44.18;102157.42;1711396;83;21490;-51
2022/01/27 11:06:59;;;;;;;9.88;4.70;;;;;;;6.11;44.31;102150.47;1711094;83;21160;-51
2022/01/27 11:09:27;;;;;;;8.50;6.08;;;;;;;6.07;44.71;102149.55;1704430;83;21192;-51
2022/01/27 11:11:56;;;;;;;11.45;8.13;;;;;;;6.07;45.11;102149.97;1715058;83;21034;-51
2022/01/27 11:14:25;;;;;;;8.58;5.95;;;;;;;6.08;45.27;102151.28;1706717;82;21025;-51
2022/01/27 11:16:59;;;;;;;6.03;4.40;;;;;;;6.08;45.11;102145.27;1704521;83;21038;-51
2022/01/27 11:19:54;;;;;;;9.65;5.67;;;;;;;6.07;44.69;102148.27;1706342;83;21132;-51
2022/01/27 11:22:22;;;;;;;7.78;4.75;;;;;;;6.06;44.71;102138.75;1664886;83;21085;-52
2022/01/27 11:27:34;;;;;;;6.90;4.67;;;;;;;6.07;44.40;102123.72;1691762;83;21045;-51
2022/01/27 11:30:24;;;;;;;6.42;4.37;;;;;;;6.05;44.39;102126.70;1709882;83;21561;-51
2022/01/27 11:33:09;;;;;;;6.47;4.85;;;;;;;6.04;44.56;102119.77;1694004;83;21060;-52
2022/01/27 11:35:35;;;;;;;6.62;4.70;;;;;;;6.04;44.79;102121.50;1704240;83;21017;-52
2022/01/27 11:38:04;;;;;;;6.03;4.25;;;;;;;6.04;44.81;102121.06;1714877;83;21553;-51
2022/01/27 11:40:44;;;;;;;7.08;5.35;;;;;;;6.04;44.87;102114.59;1710487;82;21643;-51
2022/01/27 11:43:16;;;;;;;8.60;5.45;;;;;;;6.03;44.96;102109.00;1697797;82;21042;-51
2022/01/27 11:45:53;;;;;;;8.10;4.95;;;;;;;6.03;45.14;102109.00;1699610;82;21049;-51
2022/01/27 11:48:26;;;;;;;9.00;5.97;;;;;;;6.04;45.10;102102.97;1704785;83;21482;-52
2022/01/27 11:51:01;;;;;;;16.75;10.48;;;;;;;6.04;45.24;102100.39;1690800;83;21016;-52
2022/01/27 11:53:51;;;;;;;9.38;6.22;;;;;;;6.06;45.21;102105.16;1725306;81;21102;-52
2022/01/27 11:56:35;;;;;;;10.55;7.08;;;;;;;6.09;45.22;102095.31;1764343;80;21126;-52
2022/01/27 11:59:08;;;;;;;6.47;5.33;;;;;;;6.10;45.40;102088.87;1743139;81;21023;-52
2022/01/27 12:01:37;;;;;;;4.83;3.90;;;;;;;6.14;45.68;102090.66;1759235;80;21061;-52
2022/01/27 12:04:13;;;;;;;7.80;4.70;;;;;;;6.16;46.06;102084.25;1773056;80;21105;-52
2022/01/27 12:06:50;;;;;;;9.40;6.53;;;;;;;6.18;46.35;102096.33;1761546;80;21054;-50
2022/01/27 12:09:27;;;;;;;8.80;6.05;;;;;;;6.22;46.58;102095.53;1754164;80;21554;-50
2022/01/27 12:12:07;;;;;;;8.63;6.10;;;;;;;6.25;46.73;102090.44;1766213;80;21573;-50
2022/01/27 12:14:42;;;;;;;12.88;6.45;;;;;;;6.30;46.70;102093.98;1768269;80;21070;-49
2022/01/27 12:17:15;;;;;;;9.03;6.12;;;;;;;6.31;46.62;102084.08;1744795;81;20986;-52
2022/01/27 12:20:01;;;;;;;7.55;5.45;;;;;;;6.33;46.79;102086.26;1755902;80;21085;-50
2022/01/27 12:22:52;;;;;;;9.60;6.62;;;;;;;6.32;46.91;102081.95;1770297;80;21533;-52
2022/01/27 12:25:15;;;;;;;10.63;7.30;;;;;;;6.31;46.87;102075.03;1764318;80;21101;-52